sensor_id;sensor_type;location;lat;lon;timestamp;P1;durP1;ratioP1;P2;durP2;ratioP2
56343;SDS011;42245;42.058;24.700;2023-06-10T00:01:12;7.15;;;5.55;;
56343;SDS011;42245;42.058;24.700;2023-06-10T00:03:37;5.70;;;4.65;;
56343;SDS011;42245;42.058;24.700;2023-06-10T00:06:03;8.10;;;5.35;;
56343;SDS011;42245;42.058;24.700;2023-06-10T00:08:29;8.07;;;5.30;;
56343;SDS011;42245;42.058;24.700;2023-06-10T00:10:56;9.95;;;5.10;;
56343;SDS011;42245;42.058;24.700;2023-06-10T00:13:22;7.75;;;5.28;;
56343;SDS011;42245;42.058;24.700;2023-06-10T00:15:47;8.48;;;5.57;;
56343;SDS011;42245;42.058;24.700;2023-06-10T00:18:13;6.15;;;5.03;;
56343;SDS011;42245;42.058;24.700;2023-06-10T00:20:39;7.10;;;5.25;;
56343;SDS011;42245;42.058;24.700;2023-06-10T00:23:04;7.68;;;5.10;;
56343;SDS011;42245;42.058;24.700;2023-06-10T00:25:31;6.70;;;5.57;;
56343;SDS011;42245;42.058;24.700;2023-06-10T00:27:58;6.28;;;4.95;;
56343;SDS011;42245;42.058;24.700;2023-06-10T00:30:23;6.50;;;5.10;;
56343;SDS011;42245;42.058;24.700;2023-06-10T00:32:49;9.02;;;5.60;;
56343;SDS011;42245;42.058;24.700;2023-06-10T00:35:14;8.07;;;5.63;;
56343;SDS011;42245;42.058;24.700;2023-06-10T00:37:39;8.30;;;5.28;;
56343;SDS011;42245;42.058;24.700;2023-06-10T00:40:05;6.25;;;5.40;;
56343;SDS011;42245;42.058;24.700;2023-06-10T00:42:34;8.05;;;5.07;;
56343;SDS011;42245;42.058;24.700;2023-06-10T00:44:59;8.27;;;5.40;;
56343;SDS011;42245;42.058;24.700;2023-06-10T00:47:25;6.90;;;5.50;;
56343;SDS011;42245;42.058;24.700;2023-06-10T00:49:51;8.93;;;5.47;;
56343;SDS011;42245;42.058;24.700;2023-06-10T00:52:17;11.65;;;5.50;;
56343;SDS011;42245;42.058;24.700;2023-06-10T00:54:44;6.25;;;5.63;;
56343;SDS011;42245;42.058;24.700;2023-06-10T00:57:10;8.02;;;5.70;;
56343;SDS011;42245;42.058;24.700;2023-06-10T00:59:38;6.55;;;5.50;;
56343;SDS011;42245;42.058;24.700;2023-06-10T01:02:04;8.75;;;6.07;;
56343;SDS011;42245;42.058;24.700;2023-06-10T01:04:30;7.25;;;5.40;;
56343;SDS011;42245;42.058;24.700;2023-06-10T01:15:06;7.53;;;5.53;;
56343;SDS011;42245;42.058;24.700;2023-06-10T01:17:32;9.45;;;5.45;;
56343;SDS011;42245;42.058;24.700;2023-06-10T01:19:58;7.40;;;5.80;;
56343;SDS011;42245;42.058;24.700;2023-06-10T01:22:24;9.38;;;5.80;;
56343;SDS011;42245;42.058;24.700;2023-06-10T01:24:53;9.15;;;6.05;;
56343;SDS011;42245;42.058;24.700;2023-06-10T01:27:23;8.85;;;5.20;;
56343;SDS011;42245;42.058;24.700;2023-06-10T01:29:58;7.65;;;5.10;;
56343;SDS011;42245;42.058;24.700;2023-06-10T01:32:33;8.63;;;5.70;;
56343;SDS011;42245;42.058;24.700;2023-06-10T01:35:02;9.68;;;5.97;;
56343;SDS011;42245;42.058;24.700;2023-06-10T01:37:28;8.85;;;5.90;;
56343;SDS011;42245;42.058;24.700;2023-06-10T01:39:56;8.18;;;5.78;;
56343;SDS011;42245;42.058;24.700;2023-06-10T01:42:22;8.57;;;5.70;;
56343;SDS011;42245;42.058;24.700;2023-06-10T01:44:48;6.55;;;5.85;;
56343;SDS011;42245;42.058;24.700;2023-06-10T01:47:14;7.88;;;5.85;;
56343;SDS011;42245;42.058;24.700;2023-06-10T01:49:39;6.88;;;5.60;;
56343;SDS011;42245;42.058;24.700;2023-06-10T01:52:05;7.03;;;5.75;;
56343;SDS011;42245;42.058;24.700;2023-06-10T01:54:31;7.65;;;5.88;;
56343;SDS011;42245;42.058;24.700;2023-06-10T01:56:56;7.72;;;5.60;;
56343;SDS011;42245;42.058;24.700;2023-06-10T01:59:22;6.65;;;5.47;;
56343;SDS011;42245;42.058;24.700;2023-06-10T02:01:47;10.52;;;6.18;;
56343;SDS011;42245;42.058;24.700;2023-06-10T02:04:13;9.00;;;5.40;;
56343;SDS011;42245;42.058;24.700;2023-06-10T02:06:38;7.88;;;5.88;;
56343;SDS011;42245;42.058;24.700;2023-06-10T02:09:04;8.40;;;5.95;;
56343;SDS011;42245;42.058;24.700;2023-06-10T02:11:29;7.93;;;5.72;;
56343;SDS011;42245;42.058;24.700;2023-06-10T02:13:55;7.60;;;5.60;;
56343;SDS011;42245;42.058;24.700;2023-06-10T02:16:20;8.70;;;5.55;;
56343;SDS011;42245;42.058;24.700;2023-06-10T02:18:46;8.23;;;5.68;;
56343;SDS011;42245;42.058;24.700;2023-06-10T02:21:13;9.93;;;5.88;;
56343;SDS011;42245;42.058;24.700;2023-06-10T02:23:39;8.07;;;5.68;;
56343;SDS011;42245;42.058;24.700;2023-06-10T02:26:05;9.88;;;5.97;;
56343;SDS011;42245;42.058;24.700;2023-06-10T02:28:30;6.57;;;5.80;;
56343;SDS011;42245;42.058;24.700;2023-06-10T02:30:56;8.13;;;6.13;;
56343;SDS011;42245;42.058;24.700;2023-06-10T02:33:22;7.72;;;5.68;;
56343;SDS011;42245;42.058;24.700;2023-06-10T02:35:48;10.55;;;5.97;;
56343;SDS011;42245;42.058;24.700;2023-06-10T02:38:13;8.57;;;5.63;;
56343;SDS011;42245;42.058;24.700;2023-06-10T02:40:39;8.85;;;5.38;;
56343;SDS011;42245;42.058;24.700;2023-06-10T02:43:04;8.30;;;5.72;;
56343;SDS011;42245;42.058;24.700;2023-06-10T02:45:30;7.18;;;5.35;;
56343;SDS011;42245;42.058;24.700;2023-06-10T02:47:55;7.03;;;5.35;;
56343;SDS011;42245;42.058;24.700;2023-06-10T02:50:21;5.78;;;4.97;;
56343;SDS011;42245;42.058;24.700;2023-06-10T02:52:46;9.55;;;5.25;;
56343;SDS011;42245;42.058;24.700;2023-06-10T02:55:12;6.05;;;5.22;;
56343;SDS011;42245;42.058;24.700;2023-06-10T02:57:37;7.07;;;5.47;;
56343;SDS011;42245;42.058;24.700;2023-06-10T03:00:03;9.32;;;5.85;;
56343;SDS011;42245;42.058;24.700;2023-06-10T03:02:39;9.48;;;5.82;;
56343;SDS011;42245;42.058;24.700;2023-06-10T03:05:05;7.43;;;5.40;;
56343;SDS011;42245;42.058;24.700;2023-06-10T03:07:35;7.82;;;5.32;;
56343;SDS011;42245;42.058;24.700;2023-06-10T03:10:01;7.45;;;5.60;;
56343;SDS011;42245;42.058;24.700;2023-06-10T03:12:26;9.70;;;5.70;;
56343;SDS011;42245;42.058;24.700;2023-06-10T03:32:52;9.60;;;6.00;;
56343;SDS011;42245;42.058;24.700;2023-06-10T03:35:17;8.52;;;5.80;;
56343;SDS011;42245;42.058;24.700;2023-06-10T03:37:43;6.60;;;5.13;;
56343;SDS011;42245;42.058;24.700;2023-06-10T03:40:09;7.93;;;5.50;;
56343;SDS011;42245;42.058;24.700;2023-06-10T03:42:35;9.30;;;6.40;;
56343;SDS011;42245;42.058;24.700;2023-06-10T03:45:00;8.40;;;5.65;;
56343;SDS011;42245;42.058;24.700;2023-06-10T03:47:26;7.68;;;5.97;;
56343;SDS011;42245;42.058;24.700;2023-06-10T03:49:52;8.45;;;6.60;;
56343;SDS011;42245;42.058;24.700;2023-06-10T03:52:18;11.70;;;7.55;;
56343;SDS011;42245;42.058;24.700;2023-06-10T03:54:43;11.20;;;7.55;;
56343;SDS011;42245;42.058;24.700;2023-06-10T03:57:09;10.80;;;8.07;;
56343;SDS011;42245;42.058;24.700;2023-06-10T03:59:34;11.65;;;8.35;;
56343;SDS011;42245;42.058;24.700;2023-06-10T04:02:00;10.80;;;7.63;;
56343;SDS011;42245;42.058;24.700;2023-06-10T04:04:26;17.88;;;7.82;;
56343;SDS011;42245;42.058;24.700;2023-06-10T04:06:51;11.32;;;7.93;;
56343;SDS011;42245;42.058;24.700;2023-06-10T04:09:17;9.07;;;7.60;;
56343;SDS011;42245;42.058;24.700;2023-06-10T04:11:43;12.50;;;8.05;;
56343;SDS011;42245;42.058;24.700;2023-06-10T04:14:08;17.35;;;7.30;;
56343;SDS011;42245;42.058;24.700;2023-06-10T04:16:34;10.80;;;6.82;;
56343;SDS011;42245;42.058;24.700;2023-06-10T04:19:00;8.13;;;5.38;;
56343;SDS011;42245;42.058;24.700;2023-06-10T04:21:26;5.82;;;5.22;;
56343;SDS011;42245;42.058;24.700;2023-06-10T04:23:52;9.82;;;5.65;;
56343;SDS011;42245;42.058;24.700;2023-06-10T04:26:18;8.00;;;5.45;;
56343;SDS011;42245;42.058;24.700;2023-06-10T04:28:43;8.80;;;5.28;;
56343;SDS011;42245;42.058;24.700;2023-06-10T04:31:09;8.90;;;5.80;;
56343;SDS011;42245;42.058;24.700;2023-06-10T04:33:35;7.38;;;5.63;;
56343;SDS011;42245;42.058;24.700;2023-06-10T04:36:00;7.68;;;5.50;;
56343;SDS011;42245;42.058;24.700;2023-06-10T04:38:26;7.25;;;5.55;;
56343;SDS011;42245;42.058;24.700;2023-06-10T04:40:52;8.70;;;5.38;;
56343;SDS011;42245;42.058;24.700;2023-06-10T04:43:17;9.23;;;5.63;;
56343;SDS011;42245;42.058;24.700;2023-06-10T04:45:43;5.72;;;5.20;;
56343;SDS011;42245;42.058;24.700;2023-06-10T04:48:10;8.15;;;5.45;;
56343;SDS011;42245;42.058;24.700;2023-06-10T04:50:36;6.47;;;4.97;;
56343;SDS011;42245;42.058;24.700;2023-06-10T04:53:02;5.88;;;5.28;;
56343;SDS011;42245;42.058;24.700;2023-06-10T04:55:27;12.75;;;5.50;;
56343;SDS011;42245;42.058;24.700;2023-06-10T04:57:53;7.75;;;5.55;;
56343;SDS011;42245;42.058;24.700;2023-06-10T05:00:18;8.30;;;5.53;;
56343;SDS011;42245;42.058;24.700;2023-06-10T05:02:44;8.90;;;4.78;;
56343;SDS011;42245;42.058;24.700;2023-06-10T05:05:10;6.88;;;4.85;;
56343;SDS011;42245;42.058;24.700;2023-06-10T05:07:36;7.45;;;5.03;;
56343;SDS011;42245;42.058;24.700;2023-06-10T05:10:01;8.40;;;4.80;;
56343;SDS011;42245;42.058;24.700;2023-06-10T05:12:28;6.07;;;4.65;;
56343;SDS011;42245;42.058;24.700;2023-06-10T05:14:53;5.43;;;4.57;;
56343;SDS011;42245;42.058;24.700;2023-06-10T05:17:19;5.78;;;4.55;;
56343;SDS011;42245;42.058;24.700;2023-06-10T05:19:44;10.40;;;5.53;;
56343;SDS011;42245;42.058;24.700;2023-06-10T05:22:09;10.48;;;5.75;;
56343;SDS011;42245;42.058;24.700;2023-06-10T05:24:35;8.75;;;6.07;;
56343;SDS011;42245;42.058;24.700;2023-06-10T05:27:00;11.80;;;7.18;;
56343;SDS011;42245;42.058;24.700;2023-06-10T05:29:27;13.88;;;7.00;;
56343;SDS011;42245;42.058;24.700;2023-06-10T05:31:53;13.02;;;7.15;;
56343;SDS011;42245;42.058;24.700;2023-06-10T05:34:18;19.15;;;6.60;;
56343;SDS011;42245;42.058;24.700;2023-06-10T05:36:44;10.20;;;6.80;;
56343;SDS011;42245;42.058;24.700;2023-06-10T05:39:09;16.40;;;7.45;;
56343;SDS011;42245;42.058;24.700;2023-06-10T05:41:35;12.23;;;7.00;;
56343;SDS011;42245;42.058;24.700;2023-06-10T05:44:01;11.38;;;7.22;;
56343;SDS011;42245;42.058;24.700;2023-06-10T05:46:26;10.23;;;6.55;;
56343;SDS011;42245;42.058;24.700;2023-06-10T05:48:52;10.45;;;6.57;;
56343;SDS011;42245;42.058;24.700;2023-06-10T05:51:17;18.02;;;7.22;;
56343;SDS011;42245;42.058;24.700;2023-06-10T05:53:43;9.23;;;8.02;;
56343;SDS011;42245;42.058;24.700;2023-06-10T05:56:11;14.40;;;9.13;;
56343;SDS011;42245;42.058;24.700;2023-06-10T05:58:37;10.63;;;7.70;;
56343;SDS011;42245;42.058;24.700;2023-06-10T06:01:02;13.00;;;8.02;;
56343;SDS011;42245;42.058;24.700;2023-06-10T06:03:28;11.55;;;7.90;;
56343;SDS011;42245;42.058;24.700;2023-06-10T06:05:53;10.68;;;7.82;;
56343;SDS011;42245;42.058;24.700;2023-06-10T06:08:19;11.18;;;7.53;;
56343;SDS011;42245;42.058;24.700;2023-06-10T06:10:45;11.05;;;7.88;;
56343;SDS011;42245;42.058;24.700;2023-06-10T06:13:12;10.95;;;7.43;;
56343;SDS011;42245;42.058;24.700;2023-06-10T06:15:38;11.13;;;7.03;;
56343;SDS011;42245;42.058;24.700;2023-06-10T06:18:03;7.97;;;6.70;;
56343;SDS011;42245;42.058;24.700;2023-06-10T06:20:29;11.52;;;6.75;;
56343;SDS011;42245;42.058;24.700;2023-06-10T06:22:54;8.30;;;6.72;;
56343;SDS011;42245;42.058;24.700;2023-06-10T06:25:20;10.75;;;6.78;;
56343;SDS011;42245;42.058;24.700;2023-06-10T06:27:45;10.32;;;6.10;;
56343;SDS011;42245;42.058;24.700;2023-06-10T06:30:11;9.70;;;6.50;;
56343;SDS011;42245;42.058;24.700;2023-06-10T06:32:37;8.68;;;5.97;;
56343;SDS011;42245;42.058;24.700;2023-06-10T06:35:02;10.13;;;5.75;;
56343;SDS011;42245;42.058;24.700;2023-06-10T06:37:29;9.50;;;6.10;;
56343;SDS011;42245;42.058;24.700;2023-06-10T06:39:55;8.48;;;6.63;;
56343;SDS011;42245;42.058;24.700;2023-06-10T06:42:20;8.30;;;6.22;;
56343;SDS011;42245;42.058;24.700;2023-06-10T06:44:46;15.45;;;7.07;;
56343;SDS011;42245;42.058;24.700;2023-06-10T06:47:12;12.45;;;7.13;;
56343;SDS011;42245;42.058;24.700;2023-06-10T06:49:38;13.48;;;7.90;;
56343;SDS011;42245;42.058;24.700;2023-06-10T06:52:04;10.25;;;7.82;;
56343;SDS011;42245;42.058;24.700;2023-06-10T06:54:30;9.15;;;6.63;;
56343;SDS011;42245;42.058;24.700;2023-06-10T06:56:55;10.77;;;6.97;;
56343;SDS011;42245;42.058;24.700;2023-06-10T06:59:21;11.10;;;7.00;;
56343;SDS011;42245;42.058;24.700;2023-06-10T07:01:47;10.77;;;7.03;;
56343;SDS011;42245;42.058;24.700;2023-06-10T07:04:14;7.25;;;6.55;;
56343;SDS011;42245;42.058;24.700;2023-06-10T07:06:40;8.70;;;7.22;;
56343;SDS011;42245;42.058;24.700;2023-06-10T07:09:07;9.93;;;7.07;;
56343;SDS011;42245;42.058;24.700;2023-06-10T07:11:34;10.23;;;7.05;;
56343;SDS011;42245;42.058;24.700;2023-06-10T07:13:59;10.57;;;7.47;;
56343;SDS011;42245;42.058;24.700;2023-06-10T07:16:25;10.63;;;7.10;;
56343;SDS011;42245;42.058;24.700;2023-06-10T07:18:50;9.57;;;7.10;;
56343;SDS011;42245;42.058;24.700;2023-06-10T07:21:17;11.48;;;7.00;;
56343;SDS011;42245;42.058;24.700;2023-06-10T07:23:42;10.13;;;7.65;;
56343;SDS011;42245;42.058;24.700;2023-06-10T07:26:08;11.20;;;6.82;;
56343;SDS011;42245;42.058;24.700;2023-06-10T07:28:36;11.27;;;6.95;;
56343;SDS011;42245;42.058;24.700;2023-06-10T07:31:02;9.77;;;6.28;;
56343;SDS011;42245;42.058;24.700;2023-06-10T07:33:28;7.32;;;6.25;;
56343;SDS011;42245;42.058;24.700;2023-06-10T07:35:53;10.77;;;6.60;;
56343;SDS011;42245;42.058;24.700;2023-06-10T07:38:19;9.10;;;6.03;;
56343;SDS011;42245;42.058;24.700;2023-06-10T07:40:45;10.52;;;5.30;;
56343;SDS011;42245;42.058;24.700;2023-06-10T07:43:10;6.95;;;5.53;;
56343;SDS011;42245;42.058;24.700;2023-06-10T07:45:36;7.88;;;5.40;;
56343;SDS011;42245;42.058;24.700;2023-06-10T07:48:02;7.72;;;5.70;;
56343;SDS011;42245;42.058;24.700;2023-06-10T07:50:27;9.07;;;5.47;;
56343;SDS011;42245;42.058;24.700;2023-06-10T07:52:52;7.93;;;5.55;;
56343;SDS011;42245;42.058;24.700;2023-06-10T07:55:18;11.02;;;5.30;;
56343;SDS011;42245;42.058;24.700;2023-06-10T07:57:43;10.02;;;5.50;;
56343;SDS011;42245;42.058;24.700;2023-06-10T08:00:09;10.30;;;5.60;;
56343;SDS011;42245;42.058;24.700;2023-06-10T08:02:35;7.72;;;6.00;;
56343;SDS011;42245;42.058;24.700;2023-06-10T08:05:00;7.45;;;5.68;;
56343;SDS011;42245;42.058;24.700;2023-06-10T08:07:26;13.70;;;5.90;;
56343;SDS011;42245;42.058;24.700;2023-06-10T08:09:51;6.78;;;5.25;;
56343;SDS011;42245;42.058;24.700;2023-06-10T08:12:17;6.22;;;5.57;;
56343;SDS011;42245;42.058;24.700;2023-06-10T08:14:42;9.73;;;5.43;;
56343;SDS011;42245;42.058;24.700;2023-06-10T08:17:07;10.25;;;6.10;;
56343;SDS011;42245;42.058;24.700;2023-06-10T08:19:33;13.18;;;6.70;;
56343;SDS011;42245;42.058;24.700;2023-06-10T08:21:58;8.32;;;5.93;;
56343;SDS011;42245;42.058;24.700;2023-06-10T08:24:24;11.90;;;6.15;;
56343;SDS011;42245;42.058;24.700;2023-06-10T08:26:50;11.35;;;6.40;;
56343;SDS011;42245;42.058;24.700;2023-06-10T08:29:15;10.55;;;5.80;;
56343;SDS011;42245;42.058;24.700;2023-06-10T08:31:41;9.98;;;5.47;;
56343;SDS011;42245;42.058;24.700;2023-06-10T08:34:08;7.95;;;4.80;;
56343;SDS011;42245;42.058;24.700;2023-06-10T08:36:33;6.25;;;4.78;;
56343;SDS011;42245;42.058;24.700;2023-06-10T08:38:59;5.32;;;4.80;;
56343;SDS011;42245;42.058;24.700;2023-06-10T08:41:25;5.30;;;4.57;;
56343;SDS011;42245;42.058;24.700;2023-06-10T08:46:38;8.48;;;5.40;;
56343;SDS011;42245;42.058;24.700;2023-06-10T08:49:05;9.43;;;6.10;;
56343;SDS011;42245;42.058;24.700;2023-06-10T08:51:32;9.50;;;5.88;;
56343;SDS011;42245;42.058;24.700;2023-06-10T08:54:01;13.32;;;6.00;;
56343;SDS011;42245;42.058;24.700;2023-06-10T08:56:28;9.15;;;5.78;;
56343;SDS011;42245;42.058;24.700;2023-06-10T08:58:55;10.00;;;6.00;;
56343;SDS011;42245;42.058;24.700;2023-06-10T09:01:22;10.07;;;5.85;;
56343;SDS011;42245;42.058;24.700;2023-06-10T09:03:49;8.75;;;5.00;;
56343;SDS011;42245;42.058;24.700;2023-06-10T09:06:15;7.68;;;5.28;;
56343;SDS011;42245;42.058;24.700;2023-06-10T09:08:41;10.23;;;5.90;;
56343;SDS011;42245;42.058;24.700;2023-06-10T09:11:07;9.98;;;4.93;;
56343;SDS011;42245;42.058;24.700;2023-06-10T09:13:32;10.85;;;4.85;;
56343;SDS011;42245;42.058;24.700;2023-06-10T09:15:58;10.45;;;5.45;;
56343;SDS011;42245;42.058;24.700;2023-06-10T09:18:26;11.52;;;5.57;;
56343;SDS011;42245;42.058;24.700;2023-06-10T09:20:52;7.70;;;5.35;;
56343;SDS011;42245;42.058;24.700;2023-06-10T09:23:18;8.88;;;5.03;;
56343;SDS011;42245;42.058;24.700;2023-06-10T09:25:44;7.25;;;4.55;;
56343;SDS011;42245;42.058;24.700;2023-06-10T09:28:13;7.03;;;5.15;;
56343;SDS011;42245;42.058;24.700;2023-06-10T09:30:40;6.53;;;5.28;;
56343;SDS011;42245;42.058;24.700;2023-06-10T09:33:13;13.27;;;5.55;;
56343;SDS011;42245;42.058;24.700;2023-06-10T09:35:48;8.07;;;5.35;;
56343;SDS011;42245;42.058;24.700;2023-06-10T09:38:21;9.80;;;4.78;;
56343;SDS011;42245;42.058;24.700;2023-06-10T09:40:53;12.32;;;5.10;;
56343;SDS011;42245;42.058;24.700;2023-06-10T09:43:19;10.25;;;5.30;;
56343;SDS011;42245;42.058;24.700;2023-06-10T09:45:47;9.45;;;5.32;;
56343;SDS011;42245;42.058;24.700;2023-06-10T09:48:18;5.68;;;4.80;;
56343;SDS011;42245;42.058;24.700;2023-06-10T09:50:44;7.05;;;4.90;;
56343;SDS011;42245;42.058;24.700;2023-06-10T09:53:10;7.32;;;4.90;;
56343;SDS011;42245;42.058;24.700;2023-06-10T09:55:41;8.38;;;4.70;;
56343;SDS011;42245;42.058;24.700;2023-06-10T09:58:07;6.88;;;4.78;;
56343;SDS011;42245;42.058;24.700;2023-06-10T10:00:33;7.60;;;4.78;;
56343;SDS011;42245;42.058;24.700;2023-06-10T10:02:59;6.13;;;5.10;;
56343;SDS011;42245;42.058;24.700;2023-06-10T10:05:25;7.50;;;4.82;;
56343;SDS011;42245;42.058;24.700;2023-06-10T10:07:50;5.93;;;4.63;;
56343;SDS011;42245;42.058;24.700;2023-06-10T10:10:17;10.13;;;4.90;;
56343;SDS011;42245;42.058;24.700;2023-06-10T10:12:48;8.93;;;5.22;;
56343;SDS011;42245;42.058;24.700;2023-06-10T10:15:16;7.93;;;5.03;;
56343;SDS011;42245;42.058;24.700;2023-06-10T10:17:48;5.63;;;5.05;;
56343;SDS011;42245;42.058;24.700;2023-06-10T10:20:31;8.82;;;5.22;;
56343;SDS011;42245;42.058;24.700;2023-06-10T10:22:59;10.75;;;5.40;;
56343;SDS011;42245;42.058;24.700;2023-06-10T10:25:40;15.00;;;6.05;;
56343;SDS011;42245;42.058;24.700;2023-06-10T10:28:12;10.90;;;5.53;;
56343;SDS011;42245;42.058;24.700;2023-06-10T10:30:51;8.82;;;5.47;;
56343;SDS011;42245;42.058;24.700;2023-06-10T10:33:19;8.82;;;6.00;;
56343;SDS011;42245;42.058;24.700;2023-06-10T10:35:47;13.77;;;5.97;;
56343;SDS011;42245;42.058;24.700;2023-06-10T10:38:12;12.68;;;6.75;;
56343;SDS011;42245;42.058;24.700;2023-06-10T10:40:39;12.35;;;5.95;;
56343;SDS011;42245;42.058;24.700;2023-06-10T10:43:04;10.82;;;6.00;;
56343;SDS011;42245;42.058;24.700;2023-06-10T10:45:30;10.90;;;5.30;;
56343;SDS011;42245;42.058;24.700;2023-06-10T10:47:59;10.35;;;5.82;;
56343;SDS011;42245;42.058;24.700;2023-06-10T10:50:30;8.48;;;5.97;;
56343;SDS011;42245;42.058;24.700;2023-06-10T10:52:58;15.10;;;6.15;;
56343;SDS011;42245;42.058;24.700;2023-06-10T10:55:25;11.32;;;6.20;;
56343;SDS011;42245;42.058;24.700;2023-06-10T10:58:07;8.10;;;5.43;;
56343;SDS011;42245;42.058;24.700;2023-06-10T11:00:35;8.13;;;5.88;;
56343;SDS011;42245;42.058;24.700;2023-06-10T11:08:07;10.70;;;5.97;;
56343;SDS011;42245;42.058;24.700;2023-06-10T11:10:40;10.30;;;5.78;;
56343;SDS011;42245;42.058;24.700;2023-06-10T11:13:10;11.23;;;6.90;;
56343;SDS011;42245;42.058;24.700;2023-06-10T11:15:48;11.73;;;6.30;;
56343;SDS011;42245;42.058;24.700;2023-06-10T11:18:25;11.63;;;6.22;;
56343;SDS011;42245;42.058;24.700;2023-06-10T11:20:52;12.90;;;6.40;;
56343;SDS011;42245;42.058;24.700;2023-06-10T11:29:08;9.88;;;6.20;;
56343;SDS011;42245;42.058;24.700;2023-06-10T11:31:38;13.13;;;6.90;;
56343;SDS011;42245;42.058;24.700;2023-06-10T11:34:04;8.70;;;6.43;;
56343;SDS011;42245;42.058;24.700;2023-06-10T11:36:32;10.88;;;7.18;;
56343;SDS011;42245;42.058;24.700;2023-06-10T11:38:59;9.98;;;6.68;;
56343;SDS011;42245;42.058;24.700;2023-06-10T11:41:28;11.95;;;7.32;;
56343;SDS011;42245;42.058;24.700;2023-06-10T11:43:56;9.90;;;7.57;;
56343;SDS011;42245;42.058;24.700;2023-06-10T11:46:22;11.38;;;7.60;;
56343;SDS011;42245;42.058;24.700;2023-06-10T11:48:48;8.35;;;6.85;;
56343;SDS011;42245;42.058;24.700;2023-06-10T11:51:14;11.32;;;7.47;;
56343;SDS011;42245;42.058;24.700;2023-06-10T11:53:40;9.77;;;6.70;;
56343;SDS011;42245;42.058;24.700;2023-06-10T11:56:05;7.57;;;6.35;;
56343;SDS011;42245;42.058;24.700;2023-06-10T11:58:31;11.90;;;7.07;;
56343;SDS011;42245;42.058;24.700;2023-06-10T12:00:56;8.57;;;6.82;;
56343;SDS011;42245;42.058;24.700;2023-06-10T12:03:23;9.23;;;6.90;;
56343;SDS011;42245;42.058;24.700;2023-06-10T12:06:01;12.38;;;7.50;;
56343;SDS011;42245;42.058;24.700;2023-06-10T12:08:28;10.07;;;7.57;;
56343;SDS011;42245;42.058;24.700;2023-06-10T12:10:54;11.68;;;6.68;;
56343;SDS011;42245;42.058;24.700;2023-06-10T12:13:20;10.25;;;7.03;;
56343;SDS011;42245;42.058;24.700;2023-06-10T12:15:46;7.28;;;6.35;;
56343;SDS011;42245;42.058;24.700;2023-06-10T12:18:19;13.55;;;6.65;;
56343;SDS011;42245;42.058;24.700;2023-06-10T12:20:49;10.50;;;6.47;;
56343;SDS011;42245;42.058;24.700;2023-06-10T12:23:16;9.70;;;6.50;;
56343;SDS011;42245;42.058;24.700;2023-06-10T12:25:52;11.73;;;6.15;;
56343;SDS011;42245;42.058;24.700;2023-06-10T12:28:24;8.85;;;5.95;;
56343;SDS011;42245;42.058;24.700;2023-06-10T12:30:51;9.00;;;6.25;;
56343;SDS011;42245;42.058;24.700;2023-06-10T12:33:17;10.57;;;6.38;;
56343;SDS011;42245;42.058;24.700;2023-06-10T12:35:49;9.05;;;6.38;;
56343;SDS011;42245;42.058;24.700;2023-06-10T12:38:21;9.07;;;6.45;;
56343;SDS011;42245;42.058;24.700;2023-06-10T12:40:47;11.48;;;6.53;;
56343;SDS011;42245;42.058;24.700;2023-06-10T12:43:13;10.98;;;6.22;;
56343;SDS011;42245;42.058;24.700;2023-06-10T12:45:38;7.93;;;6.50;;
56343;SDS011;42245;42.058;24.700;2023-06-10T12:48:05;8.05;;;6.15;;
56343;SDS011;42245;42.058;24.700;2023-06-10T12:50:35;12.35;;;6.50;;
56343;SDS011;42245;42.058;24.700;2023-06-10T12:53:04;8.35;;;6.28;;
56343;SDS011;42245;42.058;24.700;2023-06-10T12:55:30;7.72;;;6.43;;
56343;SDS011;42245;42.058;24.700;2023-06-10T12:57:57;9.30;;;6.13;;
56343;SDS011;42245;42.058;24.700;2023-06-10T13:00:23;11.82;;;7.00;;
56343;SDS011;42245;42.058;24.700;2023-06-10T13:02:51;10.25;;;5.88;;
56343;SDS011;42245;42.058;24.700;2023-06-10T13:05:18;13.85;;;5.75;;
56343;SDS011;42245;42.058;24.700;2023-06-10T13:07:44;8.10;;;5.60;;
56343;SDS011;42245;42.058;24.700;2023-06-10T13:10:10;8.40;;;5.47;;
56343;SDS011;42245;42.058;24.700;2023-06-10T13:12:35;8.18;;;5.78;;
56343;SDS011;42245;42.058;24.700;2023-06-10T13:15:01;9.93;;;5.68;;
56343;SDS011;42245;42.058;24.700;2023-06-10T13:17:27;8.30;;;5.60;;
56343;SDS011;42245;42.058;24.700;2023-06-10T13:19:53;11.57;;;5.60;;
56343;SDS011;42245;42.058;24.700;2023-06-10T13:22:18;8.55;;;5.50;;
56343;SDS011;42245;42.058;24.700;2023-06-10T13:24:45;8.25;;;5.90;;
56343;SDS011;42245;42.058;24.700;2023-06-10T13:27:11;9.40;;;6.20;;
56343;SDS011;42245;42.058;24.700;2023-06-10T13:29:39;6.53;;;5.82;;
56343;SDS011;42245;42.058;24.700;2023-06-10T13:32:05;7.38;;;5.75;;
56343;SDS011;42245;42.058;24.700;2023-06-10T13:34:31;7.72;;;5.20;;
56343;SDS011;42245;42.058;24.700;2023-06-10T13:36:56;9.20;;;5.47;;
56343;SDS011;42245;42.058;24.700;2023-06-10T13:39:22;9.52;;;5.15;;
56343;SDS011;42245;42.058;24.700;2023-06-10T13:41:48;8.23;;;5.30;;
56343;SDS011;42245;42.058;24.700;2023-06-10T13:44:13;6.70;;;5.53;;
56343;SDS011;42245;42.058;24.700;2023-06-10T13:46:39;7.93;;;5.03;;
56343;SDS011;42245;42.058;24.700;2023-06-10T13:49:05;5.68;;;4.82;;
56343;SDS011;42245;42.058;24.700;2023-06-10T13:51:30;9.55;;;4.78;;
56343;SDS011;42245;42.058;24.700;2023-06-10T13:53:56;8.52;;;5.28;;
56343;SDS011;42245;42.058;24.700;2023-06-10T13:56:21;9.10;;;5.20;;
56343;SDS011;42245;42.058;24.700;2023-06-10T13:58:46;10.13;;;5.40;;
56343;SDS011;42245;42.058;24.700;2023-06-10T14:01:12;6.30;;;4.82;;
56343;SDS011;42245;42.058;24.700;2023-06-10T14:03:37;9.60;;;5.15;;
56343;SDS011;42245;42.058;24.700;2023-06-10T14:06:03;7.72;;;4.85;;
56343;SDS011;42245;42.058;24.700;2023-06-10T14:08:29;7.38;;;5.13;;
56343;SDS011;42245;42.058;24.700;2023-06-10T14:10:54;6.95;;;4.95;;
56343;SDS011;42245;42.058;24.700;2023-06-10T14:13:20;7.60;;;4.63;;
56343;SDS011;42245;42.058;24.700;2023-06-10T14:15:45;7.32;;;5.13;;
56343;SDS011;42245;42.058;24.700;2023-06-10T14:18:11;8.13;;;4.88;;
56343;SDS011;42245;42.058;24.700;2023-06-10T14:20:37;8.85;;;5.10;;
56343;SDS011;42245;42.058;24.700;2023-06-10T14:23:02;5.50;;;4.30;;
56343;SDS011;42245;42.058;24.700;2023-06-10T14:25:28;5.07;;;4.57;;
56343;SDS011;42245;42.058;24.700;2023-06-10T14:27:53;6.70;;;5.03;;
56343;SDS011;42245;42.058;24.700;2023-06-10T14:30:19;5.93;;;4.90;;
56343;SDS011;42245;42.058;24.700;2023-06-10T14:32:45;5.60;;;4.30;;
56343;SDS011;42245;42.058;24.700;2023-06-10T14:35:10;6.43;;;5.00;;
56343;SDS011;42245;42.058;24.700;2023-06-10T14:37:36;11.80;;;4.90;;
56343;SDS011;42245;42.058;24.700;2023-06-10T14:40:02;5.97;;;4.60;;
56343;SDS011;42245;42.058;24.700;2023-06-10T14:42:31;8.68;;;4.40;;
56343;SDS011;42245;42.058;24.700;2023-06-10T14:44:57;6.25;;;4.95;;
56343;SDS011;42245;42.058;24.700;2023-06-10T14:47:23;5.35;;;4.70;;
56343;SDS011;42245;42.058;24.700;2023-06-10T14:49:49;6.38;;;4.70;;
56343;SDS011;42245;42.058;24.700;2023-06-10T14:52:15;5.63;;;4.60;;
56343;SDS011;42245;42.058;24.700;2023-06-10T14:54:41;8.90;;;4.95;;
56343;SDS011;42245;42.058;24.700;2023-06-10T14:57:06;6.70;;;4.47;;
56343;SDS011;42245;42.058;24.700;2023-06-10T14:59:32;7.25;;;4.70;;
56343;SDS011;42245;42.058;24.700;2023-06-10T15:01:58;6.38;;;4.40;;
56343;SDS011;42245;42.058;24.700;2023-06-10T15:04:25;6.10;;;4.68;;
56343;SDS011;42245;42.058;24.700;2023-06-10T15:06:51;6.38;;;4.95;;